sensor_id;sensor_type;location;lat;lon;timestamp;P1;durP1;ratioP1;P2;durP2;ratioP2
419;SDS011;42600;54.408;13.016;2024-03-06T00:01:19;5.30;;;1.53;;
419;SDS011;42600;54.408;13.016;2024-03-06T00:03:46;6.50;;;2.43;;
419;SDS011;42600;54.408;13.016;2024-03-06T00:06:14;9.53;;;3.97;;
419;SDS011;42600;54.408;13.016;2024-03-06T00:08:41;11.60;;;5.03;;
419;SDS011;42600;54.408;13.016;2024-03-06T00:11:07;5.33;;;3.63;;
419;SDS011;42600;54.408;13.016;2024-03-06T00:13:34;7.00;;;3.07;;
419;SDS011;42600;54.408;13.016;2024-03-06T00:16:00;9.90;;;5.03;;
419;SDS011;42600;54.408;13.016;2024-03-06T00:18:27;13.43;;;4.70;;
419;SDS011;42600;54.408;13.016;2024-03-06T00:20:53;3.93;;;2.90;;
419;SDS011;42600;54.408;13.016;2024-03-06T00:23:21;7.67;;;2.87;;
419;SDS011;42600;54.408;13.016;2024-03-06T00:25:48;8.87;;;3.00;;
419;SDS011;42600;54.408;13.016;2024-03-06T00:28:14;5.37;;;3.43;;
419;SDS011;42600;54.408;13.016;2024-03-06T00:30:41;3.87;;;2.50;;
419;SDS011;42600;54.408;13.016;2024-03-06T00:33:08;11.93;;;5.53;;
419;SDS011;42600;54.408;13.016;2024-03-06T00:35:34;10.80;;;4.97;;
419;SDS011;42600;54.408;13.016;2024-03-06T00:38:01;5.60;;;2.80;;
419;SDS011;42600;54.408;13.016;2024-03-06T00:40:29;5.47;;;2.53;;
419;SDS011;42600;54.408;13.016;2024-03-06T00:42:56;32.07;;;4.93;;
419;SDS011;42600;54.408;13.016;2024-03-06T00:45:22;9.60;;;4.30;;
419;SDS011;42600;54.408;13.016;2024-03-06T00:47:49;6.87;;;3.10;;
419;SDS011;42600;54.408;13.016;2024-03-06T00:50:16;9.10;;;3.60;;
419;SDS011;42600;54.408;13.016;2024-03-06T00:52:43;5.50;;;4.57;;
419;SDS011;42600;54.408;13.016;2024-03-06T00:55:10;11.63;;;5.07;;
419;SDS011;42600;54.408;13.016;2024-03-06T00:57:38;6.50;;;2.60;;
419;SDS011;42600;54.408;13.016;2024-03-06T01:00:05;4.00;;;2.93;;
419;SDS011;42600;54.408;13.016;2024-03-06T01:02:35;14.60;;;4.70;;
419;SDS011;42600;54.408;13.016;2024-03-06T01:05:02;20.20;;;7.43;;
419;SDS011;42600;54.408;13.016;2024-03-06T01:07:29;10.77;;;5.40;;
419;SDS011;42600;54.408;13.016;2024-03-06T01:09:56;19.93;;;8.23;;
419;SDS011;42600;54.408;13.016;2024-03-06T01:12:23;5.27;;;3.73;;
419;SDS011;42600;54.408;13.016;2024-03-06T01:14:51;12.40;;;4.40;;
419;SDS011;42600;54.408;13.016;2024-03-06T01:17:18;16.83;;;4.37;;
419;SDS011;42600;54.408;13.016;2024-03-06T01:19:44;18.23;;;4.20;;
419;SDS011;42600;54.408;13.016;2024-03-06T01:22:11;4.13;;;3.63;;
419;SDS011;42600;54.408;13.016;2024-03-06T01:24:38;19.47;;;7.97;;
419;SDS011;42600;54.408;13.016;2024-03-06T01:27:05;10.80;;;4.90;;
419;SDS011;42600;54.408;13.016;2024-03-06T01:29:32;13.50;;;5.57;;
419;SDS011;42600;54.408;13.016;2024-03-06T01:32:00;14.93;;;4.33;;
419;SDS011;42600;54.408;13.016;2024-03-06T01:34:27;11.90;;;3.13;;
419;SDS011;42600;54.408;13.016;2024-03-06T01:36:55;6.63;;;4.00;;
419;SDS011;42600;54.408;13.016;2024-03-06T01:39:22;4.70;;;3.27;;
419;SDS011;42600;54.408;13.016;2024-03-06T01:41:49;8.33;;;3.17;;
419;SDS011;42600;54.408;13.016;2024-03-06T01:44:17;13.37;;;4.70;;
419;SDS011;42600;54.408;13.016;2024-03-06T01:46:44;5.70;;;2.93;;
419;SDS011;42600;54.408;13.016;2024-03-06T01:49:13;9.70;;;4.63;;
419;SDS011;42600;54.408;13.016;2024-03-06T01:51:41;3.20;;;2.30;;
419;SDS011;42600;54.408;13.016;2024-03-06T01:54:11;8.40;;;5.07;;
419;SDS011;42600;54.408;13.016;2024-03-06T01:56:38;8.50;;;3.63;;
419;SDS011;42600;54.408;13.016;2024-03-06T01:59:10;6.83;;;5.40;;
419;SDS011;42600;54.408;13.016;2024-03-06T02:01:37;7.27;;;4.20;;
419;SDS011;42600;54.408;13.016;2024-03-06T02:04:05;11.93;;;3.10;;
419;SDS011;42600;54.408;13.016;2024-03-06T02:06:35;14.73;;;4.73;;
419;SDS011;42600;54.408;13.016;2024-03-06T02:09:04;8.60;;;2.80;;
419;SDS011;42600;54.408;13.016;2024-03-06T02:11:31;8.00;;;5.67;;
419;SDS011;42600;54.408;13.016;2024-03-06T02:13:58;8.93;;;3.23;;
419;SDS011;42600;54.408;13.016;2024-03-06T02:16:25;6.43;;;2.70;;
419;SDS011;42600;54.408;13.016;2024-03-06T02:18:52;9.03;;;5.30;;
419;SDS011;42600;54.408;13.016;2024-03-06T02:21:20;6.97;;;2.20;;
419;SDS011;42600;54.408;13.016;2024-03-06T02:23:48;10.23;;;2.03;;
419;SDS011;42600;54.408;13.016;2024-03-06T02:26:16;8.53;;;4.90;;
419;SDS011;42600;54.408;13.016;2024-03-06T02:28:46;7.90;;;4.00;;
419;SDS011;42600;54.408;13.016;2024-03-06T02:31:13;9.77;;;3.40;;
419;SDS011;42600;54.408;13.016;2024-03-06T02:33:40;5.70;;;2.00;;
419;SDS011;42600;54.408;13.016;2024-03-06T02:36:07;12.40;;;4.27;;
419;SDS011;42600;54.408;13.016;2024-03-06T02:38:35;8.00;;;3.30;;
419;SDS011;42600;54.408;13.016;2024-03-06T02:41:01;3.33;;;2.23;;
419;SDS011;42600;54.408;13.016;2024-03-06T02:43:29;5.97;;;3.53;;
419;SDS011;42600;54.408;13.016;2024-03-06T02:45:55;14.77;;;4.00;;
419;SDS011;42600;54.408;13.016;2024-03-06T02:48:22;9.90;;;3.07;;
419;SDS011;42600;54.408;13.016;2024-03-06T02:50:49;5.93;;;2.23;;
419;SDS011;42600;54.408;13.016;2024-03-06T02:53:16;10.03;;;6.80;;
419;SDS011;42600;54.408;13.016;2024-03-06T02:55:44;8.40;;;3.23;;
419;SDS011;42600;54.408;13.016;2024-03-06T02:58:10;6.17;;;2.60;;
419;SDS011;42600;54.408;13.016;2024-03-06T03:00:39;3.90;;;2.10;;
419;SDS011;42600;54.408;13.016;2024-03-06T03:03:05;9.07;;;3.40;;
419;SDS011;42600;54.408;13.016;2024-03-06T03:05:32;8.90;;;4.17;;
419;SDS011;42600;54.408;13.016;2024-03-06T03:07:59;4.43;;;2.90;;
419;SDS011;42600;54.408;13.016;2024-03-06T03:10:26;8.57;;;3.03;;
419;SDS011;42600;54.408;13.016;2024-03-06T03:12:54;5.07;;;2.90;;
419;SDS011;42600;54.408;13.016;2024-03-06T03:15:21;13.97;;;5.50;;
419;SDS011;42600;54.408;13.016;2024-03-06T03:17:47;7.37;;;4.40;;
419;SDS011;42600;54.408;13.016;2024-03-06T03:20:14;13.03;;;3.97;;
419;SDS011;42600;54.408;13.016;2024-03-06T03:22:42;11.27;;;3.67;;
419;SDS011;42600;54.408;13.016;2024-03-06T03:25:09;16.40;;;4.87;;
419;SDS011;42600;54.408;13.016;2024-03-06T03:27:36;5.90;;;2.50;;
419;SDS011;42600;54.408;13.016;2024-03-06T03:30:05;3.00;;;2.80;;
419;SDS011;42600;54.408;13.016;2024-03-06T03:32:35;9.77;;;2.57;;
419;SDS011;42600;54.408;13.016;2024-03-06T03:35:01;6.87;;;2.47;;
419;SDS011;42600;54.408;13.016;2024-03-06T03:37:29;9.60;;;4.10;;
419;SDS011;42600;54.408;13.016;2024-03-06T03:39:55;5.37;;;2.20;;
419;SDS011;42600;54.408;13.016;2024-03-06T03:42:22;5.50;;;2.60;;
419;SDS011;42600;54.408;13.016;2024-03-06T03:44:49;11.27;;;2.63;;
419;SDS011;42600;54.408;13.016;2024-03-06T03:47:17;4.43;;;2.57;;
419;SDS011;42600;54.408;13.016;2024-03-06T03:49:43;4.27;;;2.30;;
419;SDS011;42600;54.408;13.016;2024-03-06T03:52:10;7.23;;;3.83;;
419;SDS011;42600;54.408;13.016;2024-03-06T03:54:37;9.83;;;5.40;;
419;SDS011;42600;54.408;13.016;2024-03-06T03:57:04;4.30;;;2.33;;
419;SDS011;42600;54.408;13.016;2024-03-06T03:59:31;6.83;;;2.90;;
419;SDS011;42600;54.408;13.016;2024-03-06T04:01:58;5.27;;;5.00;;
419;SDS011;42600;54.408;13.016;2024-03-06T04:04:26;9.00;;;4.17;;
419;SDS011;42600;54.408;13.016;2024-03-06T04:06:54;6.43;;;4.10;;
419;SDS011;42600;54.408;13.016;2024-03-06T04:09:20;6.47;;;2.60;;
419;SDS011;42600;54.408;13.016;2024-03-06T04:11:47;2.70;;;1.53;;
419;SDS011;42600;54.408;13.016;2024-03-06T04:14:14;7.57;;;2.67;;
419;SDS011;42600;54.408;13.016;2024-03-06T04:16:40;4.53;;;2.00;;
419;SDS011;42600;54.408;13.016;2024-03-06T04:19:07;13.43;;;5.40;;
419;SDS011;42600;54.408;13.016;2024-03-06T04:21:35;2.47;;;1.37;;
419;SDS011;42600;54.408;13.016;2024-03-06T04:24:07;6.43;;;3.40;;
419;SDS011;42600;54.408;13.016;2024-03-06T04:26:33;3.87;;;2.17;;
419;SDS011;42600;54.408;13.016;2024-03-06T04:29:00;3.13;;;2.23;;
419;SDS011;42600;54.408;13.016;2024-03-06T04:31:27;6.27;;;4.13;;
419;SDS011;42600;54.408;13.016;2024-03-06T04:33:54;4.20;;;2.60;;
419;SDS011;42600;54.408;13.016;2024-03-06T04:36:21;3.43;;;2.97;;
419;SDS011;42600;54.408;13.016;2024-03-06T04:38:49;2.73;;;1.60;;
419;SDS011;42600;54.408;13.016;2024-03-06T04:41:18;8.03;;;2.60;;
419;SDS011;42600;54.408;13.016;2024-03-06T04:43:44;23.77;;;4.43;;
419;SDS011;42600;54.408;13.016;2024-03-06T04:46:12;4.83;;;2.23;;
419;SDS011;42600;54.408;13.016;2024-03-06T04:48:39;8.93;;;3.30;;
419;SDS011;42600;54.408;13.016;2024-03-06T04:51:06;3.60;;;2.57;;
419;SDS011;42600;54.408;13.016;2024-03-06T04:53:35;3.90;;;1.53;;
419;SDS011;42600;54.408;13.016;2024-03-06T04:56:03;3.07;;;2.53;;
419;SDS011;42600;54.408;13.016;2024-03-06T04:58:30;6.70;;;2.20;;
419;SDS011;42600;54.408;13.016;2024-03-06T05:00:56;3.23;;;1.67;;
419;SDS011;42600;54.408;13.016;2024-03-06T05:03:23;9.63;;;3.37;;
419;SDS011;42600;54.408;13.016;2024-03-06T05:05:50;6.20;;;1.87;;
419;SDS011;42600;54.408;13.016;2024-03-06T05:08:17;10.57;;;2.30;;
419;SDS011;42600;54.408;13.016;2024-03-06T05:10:43;11.63;;;3.33;;
419;SDS011;42600;54.408;13.016;2024-03-06T05:13:11;4.23;;;2.43;;
419;SDS011;42600;54.408;13.016;2024-03-06T05:15:38;7.90;;;2.43;;
419;SDS011;42600;54.408;13.016;2024-03-06T05:18:05;6.40;;;3.83;;
419;SDS011;42600;54.408;13.016;2024-03-06T05:20:32;12.77;;;3.47;;
419;SDS011;42600;54.408;13.016;2024-03-06T05:22:59;4.23;;;2.30;;
419;SDS011;42600;54.408;13.016;2024-03-06T05:25:26;3.17;;;2.63;;
419;SDS011;42600;54.408;13.016;2024-03-06T05:27:52;4.80;;;2.13;;
419;SDS011;42600;54.408;13.016;2024-03-06T05:30:20;3.60;;;1.50;;
419;SDS011;42600;54.408;13.016;2024-03-06T05:32:47;5.83;;;3.47;;
419;SDS011;42600;54.408;13.016;2024-03-06T05:35:13;11.20;;;3.33;;
419;SDS011;42600;54.408;13.016;2024-03-06T05:37:41;6.20;;;4.80;;
419;SDS011;42600;54.408;13.016;2024-03-06T05:40:08;12.00;;;5.10;;
419;SDS011;42600;54.408;13.016;2024-03-06T05:42:36;6.93;;;3.40;;
419;SDS011;42600;54.408;13.016;2024-03-06T05:45:03;5.33;;;3.10;;
419;SDS011;42600;54.408;13.016;2024-03-06T05:47:36;16.30;;;2.77;;
419;SDS011;42600;54.408;13.016;2024-03-06T05:50:04;6.90;;;3.20;;
419;SDS011;42600;54.408;13.016;2024-03-06T05:52:31;12.53;;;4.60;;
419;SDS011;42600;54.408;13.016;2024-03-06T05:54:58;3.77;;;2.77;;
419;SDS011;42600;54.408;13.016;2024-03-06T05:57:25;12.20;;;5.53;;
419;SDS011;42600;54.408;13.016;2024-03-06T05:59:52;3.00;;;1.70;;
419;SDS011;42600;54.408;13.016;2024-03-06T06:02:19;7.00;;;3.60;;
419;SDS011;42600;54.408;13.016;2024-03-06T06:04:48;15.93;;;5.70;;
419;SDS011;42600;54.408;13.016;2024-03-06T06:07:15;3.43;;;1.73;;
419;SDS011;42600;54.408;13.016;2024-03-06T06:09:41;7.57;;;4.30;;
419;SDS011;42600;54.408;13.016;2024-03-06T06:12:08;6.50;;;2.07;;
419;SDS011;42600;54.408;13.016;2024-03-06T06:14:35;9.30;;;4.30;;
419;SDS011;42600;54.408;13.016;2024-03-06T06:17:01;2.87;;;1.57;;
419;SDS011;42600;54.408;13.016;2024-03-06T06:19:28;2.80;;;2.20;;
419;SDS011;42600;54.408;13.016;2024-03-06T06:21:56;3.67;;;2.90;;
419;SDS011;42600;54.408;13.016;2024-03-06T06:24:23;8.10;;;3.30;;
419;SDS011;42600;54.408;13.016;2024-03-06T06:26:49;8.70;;;3.20;;
419;SDS011;42600;54.408;13.016;2024-03-06T06:29:17;6.10;;;3.20;;
419;SDS011;42600;54.408;13.016;2024-03-06T06:31:44;4.27;;;2.57;;
419;SDS011;42600;54.408;13.016;2024-03-06T06:34:10;7.20;;;2.83;;
419;SDS011;42600;54.408;13.016;2024-03-06T06:36:37;5.90;;;2.90;;
419;SDS011;42600;54.408;13.016;2024-03-06T06:39:07;9.13;;;3.20;;
419;SDS011;42600;54.408;13.016;2024-03-06T06:41:35;12.60;;;5.13;;
419;SDS011;42600;54.408;13.016;2024-03-06T06:44:02;12.17;;;6.43;;
419;SDS011;42600;54.408;13.016;2024-03-06T06:46:29;8.50;;;3.50;;
419;SDS011;42600;54.408;13.016;2024-03-06T06:48:56;5.73;;;1.73;;
419;SDS011;42600;54.408;13.016;2024-03-06T06:51:23;6.73;;;2.97;;
419;SDS011;42600;54.408;13.016;2024-03-06T06:53:50;18.90;;;5.93;;
419;SDS011;42600;54.408;13.016;2024-03-06T06:56:18;7.67;;;3.10;;
419;SDS011;42600;54.408;13.016;2024-03-06T06:58:47;10.77;;;6.37;;
419;SDS011;42600;54.408;13.016;2024-03-06T07:01:13;12.57;;;6.70;;
419;SDS011;42600;54.408;13.016;2024-03-06T07:03:41;17.20;;;5.20;;
419;SDS011;42600;54.408;13.016;2024-03-06T07:06:08;14.57;;;5.70;;
419;SDS011;42600;54.408;13.016;2024-03-06T07:08:36;5.53;;;2.33;;
419;SDS011;42600;54.408;13.016;2024-03-06T07:11:04;15.20;;;6.73;;
419;SDS011;42600;54.408;13.016;2024-03-06T07:13:32;17.40;;;5.63;;
419;SDS011;42600;54.408;13.016;2024-03-06T07:15:58;5.37;;;3.73;;
419;SDS011;42600;54.408;13.016;2024-03-06T07:18:25;10.13;;;6.97;;
419;SDS011;42600;54.408;13.016;2024-03-06T07:20:52;10.60;;;4.67;;
419;SDS011;42600;54.408;13.016;2024-03-06T07:23:18;18.30;;;5.60;;
419;SDS011;42600;54.408;13.016;2024-03-06T07:25:45;11.27;;;3.87;;
419;SDS011;42600;54.408;13.016;2024-03-06T07:28:12;15.53;;;6.77;;
419;SDS011;42600;54.408;13.016;2024-03-06T07:30:40;6.23;;;4.70;;
419;SDS011;42600;54.408;13.016;2024-03-06T07:33:06;12.53;;;4.87;;
419;SDS011;42600;54.408;13.016;2024-03-06T07:35:33;11.77;;;6.30;;
419;SDS011;42600;54.408;13.016;2024-03-06T07:38:01;13.97;;;6.77;;
419;SDS011;42600;54.408;13.016;2024-03-06T07:40:29;5.27;;;3.00;;
419;SDS011;42600;54.408;13.016;2024-03-06T07:42:56;9.33;;;4.70;;
419;SDS011;42600;54.408;13.016;2024-03-06T07:45:22;11.83;;;5.80;;
419;SDS011;42600;54.408;13.016;2024-03-06T07:47:50;6.27;;;3.90;;
419;SDS011;42600;54.408;13.016;2024-03-06T07:50:17;16.57;;;4.27;;
419;SDS011;42600;54.408;13.016;2024-03-06T07:52:44;14.23;;;3.57;;
419;SDS011;42600;54.408;13.016;2024-03-06T07:55:11;6.13;;;4.03;;
419;SDS011;42600;54.408;13.016;2024-03-06T07:57:37;12.70;;;5.37;;
419;SDS011;42600;54.408;13.016;2024-03-06T08:00:05;12.23;;;4.53;;
419;SDS011;42600;54.408;13.016;2024-03-06T08:02:39;13.43;;;6.60;;
419;SDS011;42600;54.408;13.016;2024-03-06T08:05:09;12.50;;;4.40;;
419;SDS011;42600;54.408;13.016;2024-03-06T08:07:37;13.40;;;5.07;;
419;SDS011;42600;54.408;13.016;2024-03-06T08:10:05;8.27;;;4.40;;
419;SDS011;42600;54.408;13.016;2024-03-06T08:12:33;9.40;;;4.90;;
419;SDS011;42600;54.408;13.016;2024-03-06T08:15:00;14.37;;;4.60;;
419;SDS011;42600;54.408;13.016;2024-03-06T08:17:28;18.27;;;5.73;;
419;SDS011;42600;54.408;13.016;2024-03-06T08:19:54;5.20;;;3.03;;
419;SDS011;42600;54.408;13.016;2024-03-06T08:22:22;9.87;;;4.90;;
419;SDS011;42600;54.408;13.016;2024-03-06T08:24:49;12.77;;;5.10;;
419;SDS011;42600;54.408;13.016;2024-03-06T08:27:15;20.20;;;6.93;;
419;SDS011;42600;54.408;13.016;2024-03-06T08:29:42;13.50;;;6.10;;
419;SDS011;42600;54.408;13.016;2024-03-06T08:32:08;8.20;;;4.70;;
419;SDS011;42600;54.408;13.016;2024-03-06T08:34:35;14.93;;;5.97;;
419;SDS011;42600;54.408;13.016;2024-03-06T08:37:01;16.17;;;6.33;;
419;SDS011;42600;54.408;13.016;2024-03-06T08:39:29;9.90;;;5.53;;
419;SDS011;42600;54.408;13.016;2024-03-06T08:41:56;18.13;;;4.60;;
419;SDS011;42600;54.408;13.016;2024-03-06T08:44:23;18.60;;;4.77;;
419;SDS011;42600;54.408;13.016;2024-03-06T08:46:49;9.60;;;5.30;;
419;SDS011;42600;54.408;13.016;2024-03-06T08:49:16;23.03;;;8.67;;
419;SDS011;42600;54.408;13.016;2024-03-06T08:51:42;12.67;;;4.57;;
419;SDS011;42600;54.408;13.016;2024-03-06T08:54:09;18.10;;;6.13;;
419;SDS011;42600;54.408;13.016;2024-03-06T08:56:37;4.87;;;3.50;;
419;SDS011;42600;54.408;13.016;2024-03-06T08:59:03;10.23;;;4.07;;
419;SDS011;42600;54.408;13.016;2024-03-06T09:01:30;18.70;;;6.40;;
419;SDS011;42600;54.408;13.016;2024-03-06T09:03:56;25.07;;;5.33;;
419;SDS011;42600;54.408;13.016;2024-03-06T09:06:23;19.70;;;6.73;;
419;SDS011;42600;54.408;13.016;2024-03-06T09:08:50;8.73;;;5.63;;
419;SDS011;42600;54.408;13.016;2024-03-06T09:11:16;14.40;;;7.50;;
419;SDS011;42600;54.408;13.016;2024-03-06T09:13:44;22.57;;;7.83;;
419;SDS011;42600;54.408;13.016;2024-03-06T09:16:11;22.67;;;8.40;;
419;SDS011;42600;54.408;13.016;2024-03-06T09:18:37;12.93;;;5.90;;
419;SDS011;42600;54.408;13.016;2024-03-06T09:21:04;22.27;;;6.33;;
419;SDS011;42600;54.408;13.016;2024-03-06T09:23:30;18.03;;;6.23;;
419;SDS011;42600;54.408;13.016;2024-03-06T09:25:58;14.17;;;7.83;;
419;SDS011;42600;54.408;13.016;2024-03-06T09:28:24;13.00;;;6.17;;
419;SDS011;42600;54.408;13.016;2024-03-06T09:30:52;27.03;;;7.97;;
419;SDS011;42600;54.408;13.016;2024-03-06T09:33:18;10.67;;;4.80;;
419;SDS011;42600;54.408;13.016;2024-03-06T09:35:45;15.90;;;6.73;;
419;SDS011;42600;54.408;13.016;2024-03-06T09:38:12;18.90;;;7.27;;
419;SDS011;42600;54.408;13.016;2024-03-06T09:40:39;16.40;;;7.10;;
419;SDS011;42600;54.408;13.016;2024-03-06T09:43:06;15.50;;;5.77;;
419;SDS011;42600;54.408;13.016;2024-03-06T09:45:33;10.37;;;4.57;;
419;SDS011;42600;54.408;13.016;2024-03-06T09:48:02;13.80;;;6.07;;
419;SDS011;42600;54.408;13.016;2024-03-06T09:50:29;11.40;;;7.33;;
419;SDS011;42600;54.408;13.016;2024-03-06T09:53:02;14.00;;;6.70;;
419;SDS011;42600;54.408;13.016;2024-03-06T09:55:32;23.60;;;7.13;;
419;SDS011;42600;54.408;13.016;2024-03-06T09:58:02;20.23;;;5.30;;
419;SDS011;42600;54.408;13.016;2024-03-06T10:00:30;14.50;;;5.10;;
419;SDS011;42600;54.408;13.016;2024-03-06T10:02:58;14.43;;;6.57;;
419;SDS011;42600;54.408;13.016;2024-03-06T10:05:27;15.33;;;6.10;;
419;SDS011;42600;54.408;13.016;2024-03-06T10:07:55;23.27;;;8.20;;
419;SDS011;42600;54.408;13.016;2024-03-06T10:10:23;15.50;;;7.80;;
419;SDS011;42600;54.408;13.016;2024-03-06T10:12:49;12.13;;;5.53;;
419;SDS011;42600;54.408;13.016;2024-03-06T10:15:16;21.20;;;8.53;;
419;SDS011;42600;54.408;13.016;2024-03-06T10:17:43;11.07;;;4.80;;
419;SDS011;42600;54.408;13.016;2024-03-06T10:20:17;17.20;;;5.83;;
419;SDS011;42600;54.408;13.016;2024-03-06T10:22:50;11.47;;;4.90;;
419;SDS011;42600;54.408;13.016;2024-03-06T10:25:18;14.77;;;6.90;;
419;SDS011;42600;54.408;13.016;2024-03-06T10:27:46;10.23;;;4.93;;
419;SDS011;42600;54.408;13.016;2024-03-06T10:30:26;24.10;;;7.70;;
419;SDS011;42600;54.408;13.016;2024-03-06T10:32:53;22.73;;;7.47;;
419;SDS011;42600;54.408;13.016;2024-03-06T10:35:19;10.77;;;5.67;;
419;SDS011;42600;54.408;13.016;2024-03-06T10:37:47;12.13;;;5.90;;
419;SDS011;42600;54.408;13.016;2024-03-06T10:40:16;9.60;;;4.80;;
419;SDS011;42600;54.408;13.016;2024-03-06T10:42:43;22.07;;;6.30;;
419;SDS011;42600;54.408;13.016;2024-03-06T10:45:11;9.63;;;6.23;;
419;SDS011;42600;54.408;13.016;2024-03-06T10:47:40;18.00;;;5.80;;
419;SDS011;42600;54.408;13.016;2024-03-06T10:50:10;8.70;;;4.90;;
419;SDS011;42600;54.408;13.016;2024-03-06T10:52:39;16.97;;;6.23;;
419;SDS011;42600;54.408;13.016;2024-03-06T10:55:08;20.33;;;6.90;;
419;SDS011;42600;54.408;13.016;2024-03-06T10:57:37;20.03;;;6.13;;
419;SDS011;42600;54.408;13.016;2024-03-06T11:00:06;15.60;;;7.10;;
419;SDS011;42600;54.408;13.016;2024-03-06T11:02:34;10.67;;;5.77;;
419;SDS011;42600;54.408;13.016;2024-03-06T11:05:03;15.13;;;8.30;;
419;SDS011;42600;54.408;13.016;2024-03-06T11:07:30;13.20;;;4.70;;
419;SDS011;42600;54.408;13.016;2024-03-06T11:09:58;13.43;;;5.57;;
419;SDS011;42600;54.408;13.016;2024-03-06T11:12:33;17.20;;;6.53;;
419;SDS011;42600;54.408;13.016;2024-03-06T11:15:08;10.47;;;7.00;;
419;SDS011;42600;54.408;13.016;2024-03-06T11:17:35;17.27;;;6.17;;
419;SDS011;42600;54.408;13.016;2024-03-06T11:20:12;15.60;;;6.40;;
419;SDS011;42600;54.408;13.016;2024-03-06T11:28:32;17.30;;;7.53;;
419;SDS011;42600;54.408;13.016;2024-03-06T11:31:01;19.33;;;5.50;;
419;SDS011;42600;54.408;13.016;2024-03-06T11:33:29;23.73;;;6.97;;
419;SDS011;42600;54.408;13.016;2024-03-06T11:36:14;16.80;;;5.40;;
419;SDS011;42600;54.408;13.016;2024-03-06T11:38:46;18.33;;;8.80;;
419;SDS011;42600;54.408;13.016;2024-03-06T11:41:13;13.90;;;6.47;;
419;SDS011;42600;54.408;13.016;2024-03-06T11:43:45;18.73;;;7.77;;
419;SDS011;42600;54.408;13.016;2024-03-06T11:46:15;7.50;;;3.93;;
419;SDS011;42600;54.408;13.016;2024-03-06T11:48:42;21.30;;;6.33;;
419;SDS011;42600;54.408;13.016;2024-03-06T11:51:10;13.17;;;6.87;;
419;SDS011;42600;54.408;13.016;2024-03-06T11:53:36;20.60;;;8.93;;
419;SDS011;42600;54.408;13.016;2024-03-06T11:56:05;27.03;;;8.60;;
419;SDS011;42600;54.408;13.016;2024-03-06T11:58:33;14.57;;;6.30;;
419;SDS011;42600;54.408;13.016;2024-03-06T12:01:01;13.70;;;4.60;;
419;SDS011;42600;54.408;13.016;2024-03-06T12:03:29;14.03;;;6.20;;
419;SDS011;42600;54.408;13.016;2024-03-06T12:05:56;17.60;;;7.13;;
419;SDS011;42600;54.408;13.016;2024-03-06T12:08:23;18.10;;;7.70;;
419;SDS011;42600;54.408;13.016;2024-03-06T12:10:50;25.47;;;7.93;;
419;SDS011;42600;54.408;13.016;2024-03-06T12:13:20;33.97;;;9.03;;
419;SDS011;42600;54.408;13.016;2024-03-06T12:15:47;7.87;;;4.13;;
419;SDS011;42600;54.408;13.016;2024-03-06T12:18:16;12.93;;;6.60;;
419;SDS011;42600;54.408;13.016;2024-03-06T12:20:43;13.20;;;6.50;;
419;SDS011;42600;54.408;13.016;2024-03-06T12:23:18;11.40;;;6.20;;
419;SDS011;42600;54.408;13.016;2024-03-06T12:25:46;15.90;;;7.20;;
419;SDS011;42600;54.408;13.016;2024-03-06T12:28:13;21.87;;;5.33;;
419;SDS011;42600;54.408;13.016;2024-03-06T12:30:40;17.23;;;5.33;;
419;SDS011;42600;54.408;13.016;2024-03-06T12:33:09;23.67;;;9.27;;
419;SDS011;42600;54.408;13.016;2024-03-06T12:35:41;13.37;;;6.50;;
419;SDS011;42600;54.408;13.016;2024-03-06T12:38:14;39.13;;;7.37;;
419;SDS011;42600;54.408;13.016;2024-03-06T12:40:41;25.93;;;5.83;;
419;SDS011;42600;54.408;13.016;2024-03-06T12:43:08;20.57;;;8.00;;
419;SDS011;42600;54.408;13.016;2024-03-06T12:45:35;12.10;;;6.93;;
419;SDS011;42600;54.408;13.016;2024-03-06T12:48:03;18.80;;;7.20;;
419;SDS011;42600;54.408;13.016;2024-03-06T12:50:31;11.47;;;5.23;;
419;SDS011;42600;54.408;13.016;2024-03-06T12:52:59;14.90;;;6.80;;
419;SDS011;42600;54.408;13.016;2024-03-06T12:55:29;15.03;;;7.13;;
419;SDS011;42600;54.408;13.016;2024-03-06T12:57:56;15.33;;;6.43;;
419;SDS011;42600;54.408;13.016;2024-03-06T13:00:23;24.40;;;10.13;;
419;SDS011;42600;54.408;13.016;2024-03-06T13:02:49;20.80;;;8.10;;
419;SDS011;42600;54.408;13.016;2024-03-06T13:05:16;13.40;;;6.27;;
419;SDS011;42600;54.408;13.016;2024-03-06T13:07:44;22.13;;;8.80;;
419;SDS011;42600;54.408;13.016;2024-03-06T13:10:12;29.00;;;9.07;;
419;SDS011;42600;54.408;13.016;2024-03-06T13:12:39;23.20;;;9.20;;
419;SDS011;42600;54.408;13.016;2024-03-06T13:15:06;30.53;;;8.63;;
419;SDS011;42600;54.408;13.016;2024-03-06T13:17:33;15.37;;;7.27;;
419;SDS011;42600;54.408;13.016;2024-03-06T13:19:59;14.63;;;6.43;;
419;SDS011;42600;54.408;13.016;2024-03-06T13:22:26;15.83;;;7.67;;
419;SDS011;42600;54.408;13.016;2024-03-06T13:24:53;18.00;;;7.23;;
419;SDS011;42600;54.408;13.016;2024-03-06T13:27:23;28.83;;;10.63;;
419;SDS011;42600;54.408;13.016;2024-03-06T13:29:50;14.37;;;8.07;;
419;SDS011;42600;54.408;13.016;2024-03-06T13:32:17;11.20;;;5.93;;
419;SDS011;42600;54.408;13.016;2024-03-06T13:34:43;11.80;;;5.77;;
419;SDS011;42600;54.408;13.016;2024-03-06T13:37:10;24.60;;;8.40;;
419;SDS011;42600;54.408;13.016;2024-03-06T13:39:37;29.57;;;7.67;;
419;SDS011;42600;54.408;13.016;2024-03-06T13:42:05;19.87;;;9.47;;
419;SDS011;42600;54.408;13.016;2024-03-06T13:44:34;16.60;;;8.70;;
419;SDS011;42600;54.408;13.016;2024-03-06T13:47:01;22.07;;;10.20;;
419;SDS011;42600;54.408;13.016;2024-03-06T13:49:35;30.10;;;11.60;;
419;SDS011;42600;54.408;13.016;2024-03-06T13:52:03;40.40;;;9.87;;
419;SDS011;42600;54.408;13.016;2024-03-06T13:54:32;30.03;;;9.57;;
419;SDS011;42600;54.408;13.016;2024-03-06T13:56:58;25.53;;;9.13;;
419;SDS011;42600;54.408;13.016;2024-03-06T13:59:26;28.90;;;7.40;;
419;SDS011;42600;54.408;13.016;2024-03-06T14:01:54;29.67;;;10.63;;
419;SDS011;42600;54.408;13.016;2024-03-06T14:04:20;50.00;;;9.30;;
419;SDS011;42600;54.408;13.016;2024-03-06T14:06:47;36.73;;;10.60;;
419;SDS011;42600;54.408;13.016;2024-03-06T14:09:15;41.67;;;9.47;;
419;SDS011;42600;54.408;13.016;2024-03-06T14:11:42;36.77;;;7.00;;
419;SDS011;42600;54.408;13.016;2024-03-06T14:14:08;31.33;;;8.90;;
419;SDS011;42600;54.408;13.016;2024-03-06T14:16:36;9.77;;;6.30;;
419;SDS011;42600;54.408;13.016;2024-03-06T14:19:04;44.37;;;6.97;;
419;SDS011;42600;54.408;13.016;2024-03-06T14:21:30;19.70;;;5.47;;
419;SDS011;42600;54.408;13.016;2024-03-06T14:23:57;7.13;;;3.20;;
419;SDS011;42600;54.408;13.016;2024-03-06T14:26:24;21.07;;;5.93;;
419;SDS011;42600;54.408;13.016;2024-03-06T14:28:52;16.70;;;6.27;;
419;SDS011;42600;54.408;13.016;2024-03-06T14:31:19;10.47;;;5.13;;
419;SDS011;42600;54.408;13.016;2024-03-06T14:33:45;16.80;;;4.90;;
419;SDS011;42600;54.408;13.016;2024-03-06T14:36:15;10.73;;;4.03;;
419;SDS011;42600;54.408;13.016;2024-03-06T14:38:42;10.17;;;5.00;;
419;SDS011;42600;54.408;13.016;2024-03-06T14:41:09;13.07;;;4.33;;
419;SDS011;42600;54.408;13.016;2024-03-06T14:43:35;16.90;;;8.03;;
419;SDS011;42600;54.408;13.016;2024-03-06T14:46:03;15.50;;;5.17;;
419;SDS011;42600;54.408;13.016;2024-03-06T14:48:30;17.50;;;5.27;;
419;SDS011;42600;54.408;13.016;2024-03-06T14:50:57;16.17;;;3.57;;
419;SDS011;42600;54.408;13.016;2024-03-06T14:53:25;14.67;;;5.17;;
419;SDS011;42600;54.408;13.016;2024-03-06T14:55:51;10.20;;;2.93;;
419;SDS011;42600;54.408;13.016;2024-03-06T14:58:19;50.73;;;5.63;;
419;SDS011;42600;54.408;13.016;2024-03-06T15:00:45;13.47;;;5.57;;